Time;durP1;ratioP1;P1;durP2;ratioP2;P2;SDS_P1;SDS_P2;PMS_P1;PMS_P2;Temp;Humidity;BMP_temperature;BMP_pressure;BME280_temperature;BME280_humidity;BME280_pressure;Samples;Min_cycle;Max_cycle;Signal;HPM_P1;HPM_P2
2022/04/09 00:00:33;;;;;;;7.55;1.05;;;20.70;99.90;;;;;;5038546;28;20025;-74
2022/04/09 00:03:00;;;;;;;3.35;0.70;;;21.00;99.90;;;;;;5056852;28;20017;-77
2022/04/09 00:05:27;;;;;;;3.40;0.80;;;21.00;99.90;;;;;;5029294;28;20024;-77
2022/04/09 00:07:55;;;;;;;10.25;1.42;;;20.90;99.90;;;;;;5050183;28;20017;-77
2022/04/09 00:10:22;;;;;;;6.60;0.80;;;20.50;99.90;;;;;;5058976;28;20035;-78
2022/04/09 00:12:50;;;;;;;4.90;0.80;;;20.50;99.90;;;;;;5051661;28;20420;-77
2022/04/09 00:15:17;;;;;;;7.25;0.98;;;20.30;99.90;;;;;;5059599;28;20036;-75
2022/04/09 00:17:46;;;;;;;6.90;0.77;;;20.10;99.90;;;;;;5057575;28;20043;-76
2022/04/09 00:20:18;;;;;;;8.07;1.38;;;19.90;99.90;;;;;;5054307;28;20576;-76
2022/04/09 00:22:46;;;;;;;10.15;1.48;;;19.90;99.90;;;;;;5059107;28;20036;-75
2022/04/09 00:25:15;;;;;;;8.73;1.20;;;19.90;99.90;;;;;;5058120;28;20107;-76
2022/04/09 00:27:42;;;;;;;7.13;0.75;;;19.90;99.90;;;;;;5041338;28;20559;-75
2022/04/09 00:30:13;;;;;;;6.97;0.90;;;19.90;99.90;;;;;;5050484;28;20029;-76
2022/04/09 00:32:41;;;;;;;3.60;0.65;;;19.80;99.90;;;;;;5052910;28;20024;-77
2022/04/09 00:35:09;;;;;;;7.57;0.70;;;20.00;99.90;;;;;;5055109;28;20029;-77
2022/04/09 00:37:47;;;;;;;4.95;0.70;;;20.20;99.90;;;;;;5043975;28;20026;-76
2022/04/09 00:40:18;;;;;;;6.88;0.73;;;20.30;99.90;;;;;;5054282;28;20033;-75
2022/04/09 00:42:45;;;;;;;4.72;0.77;;;20.30;99.90;;;;;;5030391;28;20035;-75
2022/04/09 00:45:13;;;;;;;6.07;0.50;;;20.50;99.90;;;;;;5045962;28;20581;-76
2022/04/09 00:47:41;;;;;;;5.53;0.95;;;20.80;99.90;;;;;;5033143;28;20044;-77
2022/04/09 00:50:10;;;;;;;7.07;1.23;;;21.20;99.90;;;;;;5050272;28;20120;-77
2022/04/09 00:57:56;;;;;;;6.95;0.93;;;21.90;99.90;;;;;;5077746;28;20079;-76
2022/04/09 01:00:23;;;;;;;7.28;1.08;;;22.00;99.90;;;;;;5064014;28;20031;-76
2022/04/09 01:02:51;;;;;;;4.13;0.47;;;22.10;99.90;;;;;;5086858;28;20025;-77
2022/04/09 01:05:18;;;;;;;8.15;1.13;;;22.40;99.90;;;;;;5090030;28;20032;-76
2022/04/09 01:07:48;;;;;;;7.53;1.20;;;23.00;99.90;;;;;;5062595;28;20036;-77
2022/04/09 01:10:15;;;;;;;5.78;1.05;;;23.00;99.90;;;;;;5088326;28;20021;-76
2022/04/09 01:12:42;;;;;;;3.85;1.00;;;23.00;99.90;;;;;;5070868;22;20059;-76
2022/04/09 01:15:10;;;;;;;5.95;1.00;;;23.20;99.90;;;;;;5051773;28;20025;-76
2022/04/09 01:17:38;;;;;;;7.47;0.73;;;23.40;99.90;;;;;;5045145;28;20037;-78
2022/04/09 01:20:22;;;;;;;6.75;1.00;;;23.50;99.90;;;;;;5051336;28;20029;-75
2022/04/09 01:22:50;;;;;;;5.43;0.85;;;23.10;99.90;;;;;;5050086;28;20034;-76
2022/04/09 01:25:17;;;;;;;5.68;1.05;;;22.80;99.90;;;;;;5049697;28;20087;-76
2022/04/09 01:27:48;;;;;;;6.03;0.80;;;22.50;99.90;;;;;;5050236;28;20032;-76
2022/04/09 01:30:17;;;;;;;7.80;1.55;;;23.00;99.90;;;;;;5070710;22;20057;-75
2022/04/09 01:32:45;;;;;;;4.50;1.05;;;23.50;99.90;;;;;;5049695;28;20020;-74
2022/04/09 01:35:12;;;;;;;9.82;2.20;;;23.30;99.90;;;;;;5051953;28;20086;-76
2022/04/09 01:37:40;;;;;;;6.65;1.52;;;22.90;99.90;;;;;;5051677;28;20489;-75
2022/04/09 01:40:08;;;;;;;11.82;1.98;;;22.30;99.90;;;;;;5051434;28;20037;-76
2022/04/09 01:42:36;;;;;;;6.03;1.00;;;21.90;99.90;;;;;;4968299;22;3385616;-77
2022/04/09 01:45:10;;;;;;;9.15;1.10;;;21.40;99.90;;;;;;5063806;28;20377;-75
2022/04/09 01:50:12;;;;;;;14.50;2.70;;;21.00;99.90;;;;;;5068453;28;19921;-69
2022/04/09 01:52:40;;;;;;;7.47;1.00;;;20.90;99.90;;;;;;5065472;28;20037;-70
2022/04/09 01:55:08;;;;;;;11.85;1.95;;;20.80;99.90;;;;;;5091508;28;20045;-70
2022/04/09 01:57:37;;;;;;;12.25;1.38;;;20.80;99.90;;;;;;5089057;28;20028;-72
2022/04/09 02:00:08;;;;;;;11.32;1.60;;;20.70;99.90;;;;;;5085397;28;20079;-70
2022/04/09 02:02:36;;;;;;;11.50;1.95;;;20.70;99.90;;;;;;5067506;28;20028;-68
2022/04/09 02:05:04;;;;;;;17.83;1.95;;;20.90;99.90;;;;;;5078879;28;20028;-69
2022/04/09 02:07:32;;;;;;;13.70;1.75;;;21.50;99.90;;;;;;5080052;28;20021;-70
2022/04/09 02:09:59;;;;;;;10.13;1.25;;;22.00;99.90;;;;;;5078331;28;20025;-71
2022/04/09 02:12:26;;;;;;;7.13;1.05;;;22.30;99.90;;;;;;5078861;28;20016;-70
2022/04/09 02:14:54;;;;;;;10.45;1.95;;;22.80;99.90;;;;;;5073721;28;20032;-70
2022/04/09 02:17:21;;;;;;;10.80;1.48;;;23.40;99.90;;;;;;5072666;28;20021;-69
2022/04/09 02:19:48;;;;;;;10.13;1.60;;;23.30;99.90;;;;;;5071903;28;20065;-69
2022/04/09 02:22:17;;;;;;;6.90;0.88;;;22.90;99.90;;;;;;5068195;28;20020;-70
2022/04/09 02:24:46;;;;;;;11.10;1.75;;;22.60;99.90;;;;;;5074985;28;20052;-70
2022/04/09 02:27:13;;;;;;;8.85;1.52;;;22.40;99.90;;;;;;5071735;28;20393;-72
2022/04/09 02:29:41;;;;;;;12.25;2.08;;;22.60;99.90;;;;;;5073687;28;20048;-71
2022/04/09 02:32:08;;;;;;;7.78;0.98;;;23.30;99.90;;;;;;5076635;28;20086;-72
2022/04/09 02:34:36;;;;;;;14.50;1.92;;;23.10;99.90;;;;;;5064950;28;20041;-70
2022/04/09 02:37:05;;;;;;;10.23;1.60;;;22.60;99.90;;;;;;5060129;28;20094;-70
2022/04/09 02:39:32;;;;;;;14.27;2.53;;;22.30;99.90;;;;;;5077698;28;20020;-71
2022/04/09 02:41:59;;;;;;;18.90;2.75;;;22.00;99.90;;;;;;5070586;28;20111;-70
2022/04/09 02:44:27;;;;;;;13.50;1.83;;;21.70;99.90;;;;;;5070162;28;20021;-70
2022/04/09 02:46:54;;;;;;;9.45;1.52;;;21.50;99.90;;;;;;5068630;28;20042;-69
2022/04/09 02:49:21;;;;;;;14.82;2.20;;;21.30;99.90;;;;;;5089137;28;20054;-69
2022/04/09 02:51:48;;;;;;;5.93;0.60;;;21.10;99.90;;;;;;5076315;28;20021;-69
2022/04/09 02:54:16;;;;;;;6.57;1.17;;;20.80;99.90;;;;;;5057825;28;20045;-70
2022/04/09 02:56:49;;;;;;;8.13;0.80;;;20.50;99.90;;;;;;5076823;28;20027;-70
2022/04/09 02:59:16;;;;;;;6.65;1.33;;;20.30;99.90;;;;;;5063532;28;20025;-70
2022/04/09 03:01:46;;;;;;;5.45;0.70;;;20.30;99.90;;;;;;5079504;28;20056;-71
2022/04/09 03:04:14;;;;;;;7.28;1.58;;;20.30;99.90;;;;;;5074947;28;20446;-70
2022/04/09 03:06:42;;;;;;;6.57;1.00;;;20.30;99.90;;;;;;5073386;28;20112;-70
2022/04/09 03:09:09;;;;;;;9.32;1.25;;;20.20;99.90;;;;;;5073213;28;20492;-70
2022/04/09 03:11:37;;;;;;;6.43;1.10;;;20.30;99.90;;;;;;5078119;28;20020;-71
2022/04/09 03:14:05;;;;;;;10.57;1.77;;;20.30;99.90;;;;;;5074153;28;20052;-69
2022/04/09 03:16:33;;;;;;;6.72;1.88;;;20.30;99.90;;;;;;5078970;28;20028;-70
2022/04/09 03:19:00;;;;;;;4.32;0.70;;;20.30;99.90;;;;;;5074674;28;20045;-70
2022/04/09 03:21:28;;;;;;;6.22;0.70;;;20.20;99.90;;;;;;5091940;28;20028;-70
2022/04/09 03:23:55;;;;;;;4.95;0.82;;;20.30;99.90;;;;;;5083870;28;20016;-70
2022/04/09 03:26:22;;;;;;;6.75;0.80;;;20.50;99.90;;;;;;5069999;28;20021;-70
2022/04/09 03:28:49;;;;;;;5.70;1.58;;;20.50;99.90;;;;;;5081092;28;20052;-70
2022/04/09 03:31:17;;;;;;;7.72;1.08;;;20.50;99.90;;;;;;5077718;28;20048;-69
2022/04/09 03:33:45;;;;;;;4.97;1.05;;;20.70;99.90;;;;;;5069394;28;20489;-69
2022/04/09 03:36:13;;;;;;;8.93;0.95;;;21.00;99.90;;;;;;5092132;28;20024;-69
2022/04/09 03:38:43;;;;;;;9.43;1.20;;;21.30;99.90;;;;;;5072860;28;20031;-70
2022/04/09 03:41:11;;;;;;;6.47;1.65;;;21.30;99.90;;;;;;5074645;28;20565;-70
2022/04/09 03:43:38;;;;;;;7.38;1.20;;;21.40;99.90;;;;;;5078380;28;20025;-70
2022/04/09 03:46:05;;;;;;;9.38;1.10;;;21.40;99.90;;;;;;5072645;28;20078;-70
2022/04/09 03:48:32;;;;;;;11.52;1.38;;;21.70;99.90;;;;;;5083071;28;20044;-70
2022/04/09 03:51:00;;;;;;;12.85;1.88;;;22.00;99.90;;;;;;5099905;28;20035;-70
2022/04/09 03:53:27;;;;;;;7.65;1.33;;;22.10;99.90;;;;;;5094072;28;20090;-70
2022/04/09 03:55:55;;;;;;;12.02;1.95;;;22.10;99.90;;;;;;5078720;28;20090;-70
2022/04/09 03:58:23;;;;;;;10.27;1.75;;;22.20;99.90;;;;;;5076854;28;20020;-70
2022/04/09 04:00:50;;;;;;;9.95;1.73;;;22.20;99.90;;;;;;5098511;28;20467;-70
2022/04/09 04:03:19;;;;;;;16.55;1.92;;;22.20;99.90;;;;;;5093641;28;20475;-70
2022/04/09 04:05:47;;;;;;;15.73;2.03;;;22.00;99.90;;;;;;5080828;28;20466;-70
2022/04/09 04:08:15;;;;;;;11.80;2.28;;;22.10;99.90;;;;;;5094094;28;20056;-69
2022/04/09 04:10:42;;;;;;;13.65;2.47;;;22.00;99.90;;;;;;5094912;28;20099;-68
2022/04/09 04:13:11;;;;;;;14.02;2.08;;;21.90;99.90;;;;;;5091007;28;20082;-69
2022/04/09 04:15:40;;;;;;;13.93;1.85;;;21.80;99.90;;;;;;5077138;28;20028;-70
2022/04/09 04:18:07;;;;;;;14.73;1.70;;;21.90;99.90;;;;;;5090491;28;20107;-69
2022/04/09 04:20:35;;;;;;;12.57;2.00;;;21.90;99.90;;;;;;5092382;28;20377;-70
2022/04/09 04:23:03;;;;;;;10.43;2.28;;;21.90;99.90;;;;;;5091096;28;20051;-70
2022/04/09 04:25:31;;;;;;;7.18;1.20;;;21.80;99.90;;;;;;5094743;28;20035;-71
2022/04/09 04:27:58;;;;;;;11.70;1.63;;;21.70;99.90;;;;;;5090849;28;20013;-71
2022/04/09 04:30:25;;;;;;;13.48;1.30;;;21.70;99.90;;;;;;5083028;28;20032;-70
2022/04/09 04:32:52;;;;;;;6.78;1.90;;;21.70;99.90;;;;;;5088093;28;20027;-69
2022/04/09 04:35:20;;;;;;;16.55;2.20;;;21.70;99.90;;;;;;5060263;28;20064;-71
2022/04/09 04:37:49;;;;;;;9.82;1.33;;;21.70;99.90;;;;;;5074741;28;20028;-70
2022/04/09 04:40:16;;;;;;;9.90;1.35;;;21.60;99.90;;;;;;5093032;28;20024;-70
2022/04/09 04:42:45;;;;;;;9.27;1.25;;;21.50;99.90;;;;;;5083108;28;20031;-68
2022/04/09 04:45:13;;;;;;;13.02;1.63;;;21.50;99.90;;;;;;5088700;28;20349;-70
2022/04/09 04:47:58;;;;;;;12.02;2.35;;;21.40;99.90;;;;;;5093257;28;20032;-71
2022/04/09 04:50:26;;;;;;;8.13;1.42;;;21.40;99.90;;;;;;5079035;28;20028;-71
2022/04/09 04:52:53;;;;;;;12.15;1.55;;;21.40;99.90;;;;;;5089891;28;20012;-70
2022/04/09 04:55:21;;;;;;;16.67;1.83;;;21.40;99.90;;;;;;5098340;28;20036;-71
2022/04/09 04:57:51;;;;;;;10.68;1.23;;;21.40;99.90;;;;;;5076942;28;20073;-71
2022/04/09 05:00:20;;;;;;;10.48;1.20;;;21.30;99.90;;;;;;5095396;28;20023;-71
2022/04/09 05:02:48;;;;;;;12.57;1.13;;;21.20;99.90;;;;;;5094804;28;20082;-71
2022/04/09 05:05:15;;;;;;;10.25;1.27;;;21.20;99.90;;;;;;5094670;28;20054;-71
2022/04/09 05:07:47;;;;;;;11.25;1.08;;;21.10;99.90;;;;;;5094767;28;20102;-71
2022/04/09 05:10:17;;;;;;;11.95;1.40;;;21.10;99.90;;;;;;5081610;28;20020;-71
2022/04/09 05:12:46;;;;;;;14.80;1.90;;;21.20;99.90;;;;;;5088207;28;20017;-71
2022/04/09 05:15:16;;;;;;;11.93;1.65;;;21.20;99.90;;;;;;5081365;28;20051;-70
2022/04/09 05:17:45;;;;;;;10.20;1.80;;;21.20;99.90;;;;;;5093315;28;20032;-70
2022/04/09 05:20:14;;;;;;;10.93;1.58;;;21.10;99.90;;;;;;5093965;28;20377;-70
2022/04/09 05:22:52;;;;;;;13.38;1.10;;;21.10;99.90;;;;;;5088826;28;20024;-71
2022/04/09 05:25:20;;;;;;;10.77;1.60;;;21.10;99.90;;;;;;5080703;28;20392;-70
2022/04/09 05:27:51;;;;;;;13.50;2.10;;;21.20;99.90;;;;;;5092834;28;20020;-71
2022/04/09 05:30:19;;;;;;;12.13;1.67;;;21.30;99.90;;;;;;5093569;28;20510;-70
2022/04/09 05:32:47;;;;;;;10.20;1.25;;;21.50;99.90;;;;;;5093534;28;20023;-70
2022/04/09 05:35:16;;;;;;;12.80;2.33;;;21.50;99.90;;;;;;5073227;28;20452;-70
2022/04/09 05:37:46;;;;;;;13.55;1.45;;;21.50;99.90;;;;;;5092037;28;20020;-70
2022/04/09 05:40:14;;;;;;;12.38;2.38;;;21.60;99.90;;;;;;5091923;28;20039;-70
2022/04/09 05:42:42;;;;;;;5.88;1.20;;;21.60;99.90;;;;;;5090380;28;20030;-70
2022/04/09 05:45:10;;;;;;;8.85;1.10;;;21.60;99.90;;;;;;5092285;28;20028;-70
2022/04/09 05:47:45;;;;;;;9.52;1.08;;;21.40;99.90;;;;;;5092394;28;20028;-70
2022/04/09 05:50:14;;;;;;;10.32;1.45;;;21.40;99.90;;;;;;5077357;28;20048;-71
2022/04/09 05:52:42;;;;;;;12.63;1.70;;;21.30;99.90;;;;;;5092785;28;20024;-71
2022/04/09 05:55:10;;;;;;;8.95;1.58;;;21.30;99.90;;;;;;5092932;28;20030;-70
2022/04/09 05:57:39;;;;;;;9.70;1.25;;;21.20;99.90;;;;;;5090925;28;20031;-69
2022/04/09 06:00:08;;;;;;;11.27;1.48;;;21.30;99.90;;;;;;5092774;28;20023;-69
2022/04/09 06:02:37;;;;;;;14.45;1.75;;;21.10;99.90;;;;;;5092423;28;20044;-70
2022/04/09 06:05:05;;;;;;;10.85;1.13;;;21.10;99.90;;;;;;5072695;28;20028;-70
2022/04/09 06:07:32;;;;;;;14.32;1.92;;;21.10;99.90;;;;;;5087180;28;20042;-70
2022/04/09 06:10:00;;;;;;;11.82;1.45;;;21.10;99.90;;;;;;5090995;28;20036;-70
2022/04/09 06:12:27;;;;;;;11.70;1.60;;;21.20;99.90;;;;;;5083355;28;20028;-70
2022/04/09 06:14:55;;;;;;;13.60;0.85;;;21.20;99.90;;;;;;5091864;28;20028;-70
2022/04/09 06:17:25;;;;;;;13.15;1.48;;;21.40;99.90;;;;;;5093089;28;20047;-70
2022/04/09 06:19:53;;;;;;;9.38;1.85;;;21.50;99.90;;;;;;5095256;28;20362;-70
2022/04/09 06:22:21;;;;;;;8.65;1.17;;;21.50;99.90;;;;;;5080241;28;20024;-70
2022/04/09 06:24:49;;;;;;;7.65;0.75;;;21.50;99.90;;;;;;5094573;28;20055;-70
2022/04/09 06:27:16;;;;;;;14.10;1.33;;;21.60;99.90;;;;;;5092714;28;20051;-70
2022/04/09 06:29:43;;;;;;;12.77;1.42;;;21.50;99.90;;;;;;5093030;28;20434;-70
2022/04/09 06:32:10;;;;;;;12.15;1.38;;;21.40;99.90;;;;;;5085489;28;20033;-70
2022/04/09 06:34:38;;;;;;;7.57;1.23;;;21.40;99.90;;;;;;5081964;28;20028;-70
2022/04/09 06:37:05;;;;;;;5.30;1.40;;;21.50;99.90;;;;;;5074367;28;20115;-70
2022/04/09 06:39:34;;;;;;;12.85;1.33;;;21.50;99.90;;;;;;5074660;28;20032;-70
2022/04/09 06:42:01;;;;;;;13.65;2.42;;;21.40;99.90;;;;;;5090170;28;20029;-70
2022/04/09 06:44:28;;;;;;;11.63;1.50;;;21.30;99.90;;;;;;5091963;28;20059;-71
2022/04/09 06:46:56;;;;;;;11.70;2.03;;;21.30;99.90;;;;;;5092054;28;20533;-70
2022/04/09 06:49:23;;;;;;;9.38;1.83;;;21.30;99.90;;;;;;5080066;28;20477;-69
2022/04/09 06:51:50;;;;;;;13.43;1.92;;;21.30;99.90;;;;;;5072898;28;20037;-70
2022/04/09 06:54:18;;;;;;;7.20;1.27;;;21.30;99.90;;;;;;5075281;28;20028;-70
2022/04/09 06:56:45;;;;;;;7.00;0.80;;;21.10;99.90;;;;;;5072561;28;20050;-70
2022/04/09 06:59:13;;;;;;;4.75;0.77;;;21.00;99.90;;;;;;5067222;28;20033;-70
2022/04/09 07:01:40;;;;;;;7.00;1.20;;;20.90;99.90;;;;;;5054504;28;20032;-70
2022/04/09 07:04:07;;;;;;;10.50;1.50;;;20.90;99.90;;;;;;5070510;28;20035;-70
2022/04/09 07:06:35;;;;;;;8.50;1.10;;;20.90;99.90;;;;;;5078919;28;20511;-70
2022/04/09 07:09:02;;;;;;;10.43;1.02;;;20.90;99.90;;;;;;5072530;28;20043;-69
2022/04/09 07:11:29;;;;;;;10.35;1.48;;;20.90;99.90;;;;;;5067680;28;20029;-70
2022/04/09 07:13:56;;;;;;;7.47;1.25;;;20.80;99.90;;;;;;5053204;28;20040;-69
2022/04/09 07:16:24;;;;;;;8.30;0.85;;;20.80;99.90;;;;;;5063080;28;20017;-70
2022/04/09 07:18:51;;;;;;;15.25;1.80;;;20.80;99.90;;;;;;5060268;28;20028;-70
2022/04/09 07:21:20;;;;;;;13.68;1.42;;;20.80;99.90;;;;;;5075937;28;20680;-70
2022/04/09 07:23:47;;;;;;;14.63;1.98;;;20.70;99.90;;;;;;5073453;28;20055;-70
2022/04/09 07:26:16;;;;;;;13.48;2.78;;;20.70;99.90;;;;;;5070362;28;20058;-70
2022/04/09 07:28:44;;;;;;;8.85;1.40;;;20.60;99.90;;;;;;5061089;28;20060;-70
2022/04/09 07:31:11;;;;;;;16.00;2.75;;;20.60;99.90;;;;;;5078403;28;20032;-70
2022/04/09 07:33:38;;;;;;;12.55;2.10;;;20.60;99.90;;;;;;5091970;28;20074;-70
2022/04/09 07:36:06;;;;;;;11.63;1.42;;;20.60;99.90;;;;;;5069156;28;20032;-70
2022/04/09 07:38:33;;;;;;;10.02;1.48;;;20.60;99.90;;;;;;5073589;28;20017;-70
2022/04/09 07:41:01;;;;;;;12.85;1.48;;;20.50;99.90;;;;;;5077136;28;20025;-70
2022/04/09 07:43:29;;;;;;;20.33;2.95;;;20.50;99.90;;;;;;5068758;28;20102;-70
2022/04/09 07:45:57;;;;;;;16.08;1.92;;;20.60;99.90;;;;;;5058110;28;20052;-70
2022/04/09 07:48:24;;;;;;;11.52;1.25;;;20.50;99.90;;;;;;5071831;22;20055;-67
2022/04/09 07:50:51;;;;;;;9.27;1.60;;;20.50;99.90;;;;;;5046002;28;20033;-70
2022/04/09 07:53:19;;;;;;;8.40;1.42;;;20.50;99.90;;;;;;5025095;28;20488;-70
2022/04/09 07:55:46;;;;;;;15.98;2.95;;;20.50;99.90;;;;;;5041607;28;20029;-70
2022/04/09 07:58:14;;;;;;;10.32;1.70;;;20.50;99.90;;;;;;5058484;28;20029;-70
2022/04/09 08:00:44;;;;;;;12.55;1.77;;;20.50;99.90;;;;;;5036795;28;20036;-70
2022/04/09 08:03:11;;;;;;;14.98;1.92;;;20.50;99.90;;;;;;5051401;28;20040;-69
2022/04/09 08:05:39;;;;;;;12.90;1.52;;;20.50;99.90;;;;;;5057747;28;20497;-70
2022/04/09 08:08:07;;;;;;;12.02;2.08;;;20.50;99.90;;;;;;5055592;28;20411;-69
2022/04/09 08:10:34;;;;;;;13.55;2.38;;;20.50;99.90;;;;;;5043115;28;20026;-69
2022/04/09 08:13:02;;;;;;;13.25;2.47;;;20.50;99.90;;;;;;5054692;28;20107;-69
2022/04/09 08:15:30;;;;;;;12.00;1.70;;;20.50;99.90;;;;;;5032402;28;20037;-69
2022/04/09 08:17:57;;;;;;;12.55;1.63;;;20.40;99.90;;;;;;5035369;28;20028;-70
2022/04/09 08:20:24;;;;;;;9.32;1.50;;;20.40;99.90;;;;;;5047877;28;20028;-70
2022/04/09 08:22:52;;;;;;;11.10;2.03;;;20.40;99.90;;;;;;5049798;28;20043;-69
2022/04/09 08:25:20;;;;;;;12.93;1.83;;;20.40;99.90;;;;;;5049773;28;20032;-70
2022/04/09 08:27:51;;;;;;;13.98;2.25;;;20.30;99.90;;;;;;5047517;28;20021;-70
2022/04/09 08:30:19;;;;;;;14.32;1.88;;;20.40;99.90;;;;;;5052084;28;20013;-69
2022/04/09 08:32:46;;;;;;;8.45;1.75;;;20.30;99.90;;;;;;5032956;28;20511;-69
2022/04/09 08:35:14;;;;;;;17.02;1.75;;;20.30;99.90;;;;;;5032049;28;20036;-70
2022/04/09 08:37:42;;;;;;;12.18;2.17;;;20.40;99.90;;;;;;5047781;28;20060;-69
2022/04/09 08:40:14;;;;;;;8.02;1.55;;;20.40;99.90;;;;;;5050445;28;20055;-71
2022/04/09 08:42:42;;;;;;;13.02;1.40;;;20.30;99.90;;;;;;5049730;28;20051;-70
2022/04/09 08:45:10;;;;;;;8.77;1.27;;;20.30;99.90;;;;;;5028475;28;20481;-70
2022/04/09 08:47:39;;;;;;;6.78;1.23;;;20.30;99.90;;;;;;5031029;28;20516;-69
2022/04/09 08:50:12;;;;;;;10.38;1.95;;;20.40;99.90;;;;;;5048756;28;20425;-70
2022/04/09 08:52:42;;;;;;;7.13;1.35;;;20.40;99.90;;;;;;5027044;28;20119;-70
2022/04/09 08:55:12;;;;;;;12.48;1.58;;;20.40;99.90;;;;;;5034771;28;20033;-71
2022/04/09 08:57:41;;;;;;;10.63;1.65;;;20.30;99.90;;;;;;5052690;28;20405;-70
2022/04/09 09:00:12;;;;;;;10.48;1.70;;;20.30;99.90;;;;;;5053249;28;20261;-70
2022/04/09 09:02:53;;;;;;;9.93;1.20;;;20.30;99.90;;;;;;5021731;28;20029;-70
2022/04/09 09:05:37;;;;;;;12.75;1.48;;;20.30;99.90;;;;;;5051749;28;20033;-70
2022/04/09 09:08:06;;;;;;;10.82;1.75;;;20.30;99.90;;;;;;5053316;28;20055;-70
2022/04/09 09:10:34;;;;;;;8.98;1.75;;;20.30;99.90;;;;;;5050545;28;20036;-71
2022/04/09 09:13:12;;;;;;;9.98;1.20;;;20.30;99.90;;;;;;5046852;28;20037;-70
2022/04/09 09:15:46;;;;;;;9.68;1.70;;;20.30;99.90;;;;;;5049604;28;20040;-71
2022/04/09 09:18:28;;;;;;;19.77;3.00;;;20.20;99.90;;;;;;5034018;28;20029;-70
2022/04/09 09:20:57;;;;;;;9.77;1.77;;;20.20;99.90;;;;;;5037163;28;20489;-70
2022/04/09 09:23:25;;;;;;;9.75;1.65;;;20.20;99.90;;;;;;5051669;28;20493;-70
2022/04/09 09:25:55;;;;;;;12.60;2.05;;;20.20;99.90;;;;;;5031681;28;20030;-70
2022/04/09 09:28:30;;;;;;;12.48;2.45;;;20.10;99.90;;;;;;5051794;28;20548;-69
2022/04/09 09:30:58;;;;;;;7.57;1.30;;;20.10;99.90;;;;;;5032393;28;20025;-71
2022/04/09 09:33:26;;;;;;;12.60;1.90;;;20.10;99.90;;;;;;5052571;28;20407;-71
2022/04/09 09:36:01;;;;;;;8.38;1.40;;;20.10;99.90;;;;;;5048007;28;20504;-71
2022/04/09 09:38:33;;;;;;;13.90;2.42;;;20.10;99.90;;;;;;5034403;28;20040;-75
2022/04/09 09:41:03;;;;;;;9.88;1.55;;;20.10;99.90;;;;;;5031454;28;20037;-66
2022/04/09 09:43:31;;;;;;;10.38;1.63;;;20.10;99.90;;;;;;5048771;28;20025;-66
2022/04/09 09:45:59;;;;;;;11.40;1.60;;;20.20;99.90;;;;;;5051870;28;20151;-66
2022/04/09 09:48:34;;;;;;;11.07;2.15;;;20.10;99.90;;;;;;5038115;28;20059;-65
2022/04/09 09:51:02;;;;;;;16.95;2.45;;;20.10;99.90;;;;;;5046658;28;20017;-66
2022/04/09 09:53:37;;;;;;;9.63;1.58;;;20.10;99.90;;;;;;5051127;28;20032;-66
2022/04/09 09:56:05;;;;;;;7.78;1.52;;;20.10;99.90;;;;;;5052323;28;20483;-66
2022/04/09 09:58:33;;;;;;;7.30;1.20;;;20.10;99.90;;;;;;5052895;28;20033;-67
2022/04/09 10:01:00;;;;;;;17.08;2.00;;;20.10;99.90;;;;;;5043016;28;20440;-66
2022/04/09 10:03:28;;;;;;;7.55;1.70;;;20.10;99.90;;;;;;5025866;28;20445;-67
2022/04/09 10:05:55;;;;;;;11.60;1.60;;;20.20;99.90;;;;;;5048434;28;20087;-66
2022/04/09 10:08:23;;;;;;;8.27;1.65;;;20.20;99.90;;;;;;5052277;28;20124;-66
2022/04/09 10:10:51;;;;;;;14.32;2.55;;;20.20;99.90;;;;;;5050322;28;20495;-66
2022/04/09 10:13:26;;;;;;;13.85;2.55;;;20.20;99.90;;;;;;5051831;28;20029;-66
2022/04/09 10:15:53;;;;;;;14.35;2.00;;;20.20;99.90;;;;;;5051319;28;20452;-67
2022/04/09 10:18:24;;;;;;;10.63;2.00;;;20.20;99.90;;;;;;5050306;28;20047;-66
2022/04/09 10:20:56;;;;;;;10.43;1.73;;;20.10;99.90;;;;;;5041582;28;20556;-66
2022/04/09 10:23:25;;;;;;;10.75;1.70;;;20.10;99.90;;;;;;5041060;28;20018;-67
2022/04/09 10:25:53;;;;;;;11.52;2.17;;;20.00;99.90;;;;;;5032978;28;20033;-66
2022/04/09 10:28:36;;;;;;;9.27;2.10;;;19.90;99.90;;;;;;5041430;28;20363;-66
2022/04/09 10:31:23;;;;;;;12.25;2.35;;;19.90;99.90;;;;;;5051093;28;20021;-66
2022/04/09 10:33:59;;;;;;;20.75;3.10;;;19.90;99.90;;;;;;5051805;28;20373;-66
2022/04/09 10:36:41;;;;;;;10.85;1.42;;;19.90;99.90;;;;;;5045000;28;20083;-66
2022/04/09 10:39:49;;;;;;;10.15;1.85;;;19.90;99.90;;;;;;5041254;28;20520;-66
2022/04/09 10:42:52;;;;;;;8.02;1.35;;;19.90;99.90;;;;;;5043483;28;20489;-66
2022/04/09 10:45:19;;;;;;;11.05;1.40;;;19.90;99.90;;;;;;5038861;28;20033;-66
2022/04/09 10:48:14;;;;;;;11.80;1.98;;;19.80;99.90;;;;;;5049291;28;20021;-66
2022/04/09 10:51:04;;;;;;;5.85;0.70;;;19.70;99.90;;;;;;5049514;28;20523;-66
2022/04/09 10:53:38;;;;;;;11.25;1.35;;;19.70;99.90;;;;;;5031878;28;20044;-66
2022/04/09 10:56:12;;;;;;;7.60;1.20;;;19.60;99.90;;;;;;5056051;28;20031;-66
2022/04/09 10:58:56;;;;;;;;;;;19.60;99.90;;;;;;5055505;28;20079;-66
2022/04/09 11:01:46;;;;;;;8.68;1.33;;;19.70;99.90;;;;;;5036486;28;19916;-66
2022/04/09 11:04:35;;;;;;;6.70;0.73;;;19.70;99.90;;;;;;5026891;28;20036;-67
2022/04/09 11:07:16;;;;;;;7.03;1.25;;;19.70;99.90;;;;;;5051063;28;20033;-66
2022/04/09 11:09:59;;;;;;;12.50;1.23;;;19.60;99.90;;;;;;5055166;28;20070;-66
2022/04/09 11:12:33;;;;;;;6.20;1.00;;;19.60;99.90;;;;;;5051063;28;20485;-66
2022/04/09 11:15:03;;;;;;;5.60;0.80;;;19.50;99.90;;;;;;5054411;28;20024;-66
2022/04/09 11:17:32;;;;;;;7.47;1.17;;;19.60;99.90;;;;;;5052650;28;20028;-66
2022/04/09 11:20:05;;;;;;;7.68;0.70;;;19.60;99.90;;;;;;5054116;28;20025;-66
2022/04/09 11:22:45;;;;;;;8.15;0.88;;;19.60;99.90;;;;;;5052103;28;20025;-66
2022/04/09 11:25:26;;;;;;;8.05;1.15;;;19.70;99.90;;;;;;5037324;28;20036;-66
2022/04/09 11:28:12;;;;;;;7.25;1.27;;;19.60;99.90;;;;;;5048522;28;20025;-66
2022/04/09 11:31:00;;;;;;;8.30;0.88;;;19.60;99.90;;;;;;5054868;28;20025;-66
2022/04/09 11:33:28;;;;;;;6.80;0.70;;;19.60;99.90;;;;;;5054671;28;20587;-66
2022/04/09 11:35:56;;;;;;;14.48;1.13;;;19.60;99.90;;;;;;5052811;28;20084;-66
2022/04/09 11:38:27;;;;;;;8.65;0.85;;;19.60;99.90;;;;;;5045620;28;20024;-66
2022/04/09 11:40:56;;;;;;;8.05;1.33;;;19.60;99.90;;;;;;5057215;28;20475;-66
2022/04/09 11:43:24;;;;;;;6.72;1.33;;;19.60;99.90;;;;;;5053284;28;20021;-66
2022/04/09 11:45:52;;;;;;;8.45;1.17;;;19.60;99.90;;;;;;5054403;28;20036;-65
2022/04/09 11:48:21;;;;;;;8.88;1.15;;;19.60;99.90;;;;;;5042569;28;20500;-66
2022/04/09 11:50:48;;;;;;;10.27;1.10;;;19.60;99.90;;;;;;5049526;28;20444;-66
2022/04/09 11:53:22;;;;;;;4.60;0.60;;;19.60;99.90;;;;;;5049657;28;20044;-66
2022/04/09 11:55:58;;;;;;;8.87;1.40;;;19.60;99.90;;;;;;5050890;28;20060;-66
2022/04/09 11:58:35;;;;;;;6.07;1.05;;;19.50;99.90;;;;;;5051443;28;20025;-66
2022/04/09 12:01:07;;;;;;;9.20;2.10;;;19.50;99.90;;;;;;5052257;28;20029;-66
2022/04/09 12:03:34;;;;;;;9.32;1.65;;;19.50;99.90;;;;;;5047301;28;20024;-66
2022/04/09 12:06:02;;;;;;;9.13;1.45;;;19.50;99.90;;;;;;5052679;28;20041;-65
2022/04/09 12:08:33;;;;;;;11.52;2.42;;;19.40;99.90;;;;;;5043349;28;20029;-65
2022/04/09 12:11:02;;;;;;;6.22;1.45;;;19.40;99.90;;;;;;5051240;28;20067;-65
2022/04/09 12:13:37;;;;;;;6.90;1.30;;;19.40;99.90;;;;;;5052674;28;20028;-65
2022/04/09 12:16:10;;;;;;;10.60;1.50;;;19.30;99.90;;;;;;5052655;28;20060;-65
2022/04/09 12:18:38;;;;;;;5.95;1.17;;;19.30;99.90;;;;;;5049580;28;20024;-65
2022/04/09 12:21:22;;;;;;;11.80;1.60;;;19.30;99.90;;;;;;5048541;28;20052;-65
2022/04/09 12:24:03;;;;;;;8.23;1.52;;;19.20;99.90;;;;;;5048110;28;20017;-65
2022/04/09 12:26:33;;;;;;;10.25;1.58;;;19.30;99.90;;;;;;5051171;28;20094;-65
2022/04/09 12:29:23;;;;;;;10.25;1.17;;;19.30;99.90;;;;;;5042971;28;20036;-65
2022/04/09 12:31:52;;;;;;;10.15;1.23;;;19.40;99.90;;;;;;5038596;28;20103;-65
2022/04/09 12:34:21;;;;;;;9.20;1.40;;;19.40;99.90;;;;;;5045419;28;20044;-65
2022/04/09 12:37:05;;;;;;;10.95;1.65;;;19.40;99.90;;;;;;5052116;28;20043;-65
2022/04/09 12:39:33;;;;;;;9.73;1.30;;;19.50;99.90;;;;;;5043442;28;20020;-66
2022/04/09 12:42:01;;;;;;;16.67;2.10;;;19.50;99.90;;;;;;5051122;28;20370;-66
2022/04/09 12:44:36;;;;;;;12.63;1.95;;;19.50;99.90;;;;;;5050919;28;20032;-66
2022/04/09 12:47:05;;;;;;;14.40;2.00;;;19.50;99.90;;;;;;5046559;28;20048;-66
2022/04/09 12:49:37;;;;;;;15.35;2.38;;;19.50;99.90;;;;;;5050920;28;20497;-67
2022/04/09 12:52:08;;;;;;;8.35;1.50;;;19.50;99.90;;;;;;5049743;28;20033;-67
2022/04/09 12:54:35;;;;;;;8.75;1.20;;;19.50;99.90;;;;;;5051335;28;20033;-67
2022/04/09 12:57:14;;;;;;;19.95;1.98;;;19.50;99.90;;;;;;5036968;28;20056;-67
2022/04/09 12:59:42;;;;;;;13.00;1.98;;;19.50;99.90;;;;;;5051398;28;20036;-67
2022/04/09 13:02:09;;;;;;;11.98;1.95;;;19.40;99.90;;;;;;5042212;28;20079;-67
2022/04/09 13:04:37;;;;;;;14.00;1.77;;;19.40;99.90;;;;;;5044363;28;20024;-67